sensor_id;sensor_type;location;lat;lon;timestamp;temperature;humidity
35523;DHT22;61478;50.820;4.330;2023-03-01T00:07:57;2.80;99.90
35523;DHT22;61478;50.820;4.330;2023-03-01T00:10:24;2.80;99.90
35523;DHT22;61478;50.820;4.330;2023-03-01T00:12:50;2.80;99.90
35523;DHT22;61478;50.820;4.330;2023-03-01T00:18:38;2.60;99.90
35523;DHT22;61478;50.820;4.330;2023-03-01T00:21:04;2.80;99.90
35523;DHT22;61478;50.820;4.330;2023-03-01T00:23:34;2.70;99.90
35523;DHT22;61478;50.820;4.330;2023-03-01T00:26:00;2.70;99.90
35523;DHT22;61478;50.820;4.330;2023-03-01T00:28:26;2.70;99.90
35523;DHT22;61478;50.820;4.330;2023-03-01T00:30:52;2.60;99.90
35523;DHT22;61478;50.820;4.330;2023-03-01T00:33:19;2.70;99.90
35523;DHT22;61478;50.820;4.330;2023-03-01T00:35:45;2.60;99.90
35523;DHT22;61478;50.820;4.330;2023-03-01T00:38:11;2.40;99.90
35523;DHT22;61478;50.820;4.330;2023-03-01T00:40:36;2.30;99.90
35523;DHT22;61478;50.820;4.330;2023-03-01T00:43:03;2.30;99.90
35523;DHT22;61478;50.820;4.330;2023-03-01T00:45:29;2.30;99.90
35523;DHT22;61478;50.820;4.330;2023-03-01T00:47:57;2.30;99.90
35523;DHT22;61478;50.820;4.330;2023-03-01T00:50:23;2.40;99.90
35523;DHT22;61478;50.820;4.330;2023-03-01T00:52:55;2.30;99.90
35523;DHT22;61478;50.820;4.330;2023-03-01T00:55:22;2.20;99.90
35523;DHT22;61478;50.820;4.330;2023-03-01T00:57:48;2.10;99.90
35523;DHT22;61478;50.820;4.330;2023-03-01T01:00:14;2.20;99.90
35523;DHT22;61478;50.820;4.330;2023-03-01T01:02:40;2.60;99.90
35523;DHT22;61478;50.820;4.330;2023-03-01T01:05:06;3.00;99.90
35523;DHT22;61478;50.820;4.330;2023-03-01T01:07:32;3.20;99.90
35523;DHT22;61478;50.820;4.330;2023-03-01T01:09:58;3.30;99.90
35523;DHT22;61478;50.820;4.330;2023-03-01T01:12:24;3.30;99.90
35523;DHT22;61478;50.820;4.330;2023-03-01T01:14:50;3.50;99.90
35523;DHT22;61478;50.820;4.330;2023-03-01T01:17:16;3.30;99.90
35523;DHT22;61478;50.820;4.330;2023-03-01T01:19:43;3.20;99.90
35523;DHT22;61478;50.820;4.330;2023-03-01T01:22:09;3.40;99.90
35523;DHT22;61478;50.820;4.330;2023-03-01T01:24:35;3.40;99.90
35523;DHT22;61478;50.820;4.330;2023-03-01T01:27:01;3.40;99.90
35523;DHT22;61478;50.820;4.330;2023-03-01T01:29:26;3.10;99.90
35523;DHT22;61478;50.820;4.330;2023-03-01T01:31:52;3.10;99.90
35523;DHT22;61478;50.820;4.330;2023-03-01T01:34:20;3.30;99.90
35523;DHT22;61478;50.820;4.330;2023-03-01T01:36:51;3.50;99.90
35523;DHT22;61478;50.820;4.330;2023-03-01T01:39:22;3.50;99.90
35523;DHT22;61478;50.820;4.330;2023-03-01T01:41:49;3.50;99.90
35523;DHT22;61478;50.820;4.330;2023-03-01T01:44:25;3.60;99.90
35523;DHT22;61478;50.820;4.330;2023-03-01T01:49:23;3.60;99.90
35523;DHT22;61478;50.820;4.330;2023-03-01T01:51:51;3.60;99.90
35523;DHT22;61478;50.820;4.330;2023-03-01T01:54:35;3.50;99.90
35523;DHT22;61478;50.820;4.330;2023-03-01T01:57:10;3.60;99.90
35523;DHT22;61478;50.820;4.330;2023-03-01T01:59:37;3.60;99.90
35523;DHT22;61478;50.820;4.330;2023-03-01T02:02:05;3.60;99.90
35523;DHT22;61478;50.820;4.330;2023-03-01T02:04:32;3.70;99.90
35523;DHT22;61478;50.820;4.330;2023-03-01T02:07:03;3.60;99.90
35523;DHT22;61478;50.820;4.330;2023-03-01T02:09:32;3.50;99.90
35523;DHT22;61478;50.820;4.330;2023-03-01T02:11:59;3.50;99.90
35523;DHT22;61478;50.820;4.330;2023-03-01T02:14:25;3.40;99.90
35523;DHT22;61478;50.820;4.330;2023-03-01T02:16:52;3.50;99.90
35523;DHT22;61478;50.820;4.330;2023-03-01T02:19:40;3.50;99.90
35523;DHT22;61478;50.820;4.330;2023-03-01T02:22:18;3.60;99.90
35523;DHT22;61478;50.820;4.330;2023-03-01T02:30:15;2.60;99.90
35523;DHT22;61478;50.820;4.330;2023-03-01T02:32:41;2.50;99.90
35523;DHT22;61478;50.820;4.330;2023-03-01T02:35:14;2.40;99.90
35523;DHT22;61478;50.820;4.330;2023-03-01T02:37:42;2.40;99.90
35523;DHT22;61478;50.820;4.330;2023-03-01T02:40:12;2.50;99.90
35523;DHT22;61478;50.820;4.330;2023-03-01T02:42:57;2.40;99.90
35523;DHT22;61478;50.820;4.330;2023-03-01T02:45:24;2.50;99.90
35523;DHT22;61478;50.820;4.330;2023-03-01T02:47:53;2.70;99.90
35523;DHT22;61478;50.820;4.330;2023-03-01T02:55:38;2.30;99.90
35523;DHT22;61478;50.820;4.330;2023-03-01T02:58:04;2.10;99.90
35523;DHT22;61478;50.820;4.330;2023-03-01T03:00:36;1.90;99.90
35523;DHT22;61478;50.820;4.330;2023-03-01T03:03:06;1.80;99.90
35523;DHT22;61478;50.820;4.330;2023-03-01T03:05:33;2.00;99.90
35523;DHT22;61478;50.820;4.330;2023-03-01T03:08:01;2.00;99.90
35523;DHT22;61478;50.820;4.330;2023-03-01T03:10:32;1.90;99.90
35523;DHT22;61478;50.820;4.330;2023-03-01T03:13:08;1.80;99.90
35523;DHT22;61478;50.820;4.330;2023-03-01T03:15:35;1.70;99.90
35523;DHT22;61478;50.820;4.330;2023-03-01T03:18:07;1.80;99.90
35523;DHT22;61478;50.820;4.330;2023-03-01T03:20:34;1.70;99.90
35523;DHT22;61478;50.820;4.330;2023-03-01T03:23:01;1.70;99.90
35523;DHT22;61478;50.820;4.330;2023-03-01T03:25:29;1.80;99.90
35523;DHT22;61478;50.820;4.330;2023-03-01T03:27:55;2.10;99.90
35523;DHT22;61478;50.820;4.330;2023-03-01T03:30:29;2.40;99.90
35523;DHT22;61478;50.820;4.330;2023-03-01T03:32:57;2.60;99.90
35523;DHT22;61478;50.820;4.330;2023-03-01T03:35:33;2.80;99.90
35523;DHT22;61478;50.820;4.330;2023-03-01T03:38:03;2.70;99.90
35523;DHT22;61478;50.820;4.330;2023-03-01T03:40:36;2.80;99.90
35523;DHT22;61478;50.820;4.330;2023-03-01T03:43:08;2.90;99.90
35523;DHT22;61478;50.820;4.330;2023-03-01T03:45:35;2.90;99.90
35523;DHT22;61478;50.820;4.330;2023-03-01T03:48:02;2.90;99.90
35523;DHT22;61478;50.820;4.330;2023-03-01T03:50:30;2.90;99.90
35523;DHT22;61478;50.820;4.330;2023-03-01T03:52:56;3.00;99.90
35523;DHT22;61478;50.820;4.330;2023-03-01T03:55:22;3.00;99.90
35523;DHT22;61478;50.820;4.330;2023-03-01T03:57:49;2.90;99.90
35523;DHT22;61478;50.820;4.330;2023-03-01T04:00:19;2.90;99.90
35523;DHT22;61478;50.820;4.330;2023-03-01T04:02:45;2.90;99.90
35523;DHT22;61478;50.820;4.330;2023-03-01T04:05:13;2.90;99.90
35523;DHT22;61478;50.820;4.330;2023-03-01T04:07:41;2.90;99.90
35523;DHT22;61478;50.820;4.330;2023-03-01T04:10:10;2.80;99.90
35523;DHT22;61478;50.820;4.330;2023-03-01T04:12:36;2.70;99.90
35523;DHT22;61478;50.820;4.330;2023-03-01T04:15:03;2.80;99.90
35523;DHT22;61478;50.820;4.330;2023-03-01T04:17:48;2.80;99.90
35523;DHT22;61478;50.820;4.330;2023-03-01T04:20:16;2.80;99.90
35523;DHT22;61478;50.820;4.330;2023-03-01T04:22:44;2.90;99.90
35523;DHT22;61478;50.820;4.330;2023-03-01T04:25:13;2.90;99.90
35523;DHT22;61478;50.820;4.330;2023-03-01T04:27:40;3.00;99.90
35523;DHT22;61478;50.820;4.330;2023-03-01T04:30:08;3.10;99.90
35523;DHT22;61478;50.820;4.330;2023-03-01T04:32:34;3.10;99.90
35523;DHT22;61478;50.820;4.330;2023-03-01T04:35:00;3.00;99.90
35523;DHT22;61478;50.820;4.330;2023-03-01T04:37:26;3.10;99.90
35523;DHT22;61478;50.820;4.330;2023-03-01T04:39:52;3.10;99.90
35523;DHT22;61478;50.820;4.330;2023-03-01T04:42:19;3.10;99.90
35523;DHT22;61478;50.820;4.330;2023-03-01T04:44:45;3.10;99.90
35523;DHT22;61478;50.820;4.330;2023-03-01T04:47:11;3.10;99.90
35523;DHT22;61478;50.820;4.330;2023-03-01T04:49:37;3.10;99.90
35523;DHT22;61478;50.820;4.330;2023-03-01T04:52:04;3.10;99.90
35523;DHT22;61478;50.820;4.330;2023-03-01T04:54:33;3.10;99.90
35523;DHT22;61478;50.820;4.330;2023-03-01T04:57:00;3.00;99.90
35523;DHT22;61478;50.820;4.330;2023-03-01T04:59:26;2.90;99.90
35523;DHT22;61478;50.820;4.330;2023-03-01T05:01:56;2.90;99.90
35523;DHT22;61478;50.820;4.330;2023-03-01T05:04:25;2.90;99.90
35523;DHT22;61478;50.820;4.330;2023-03-01T05:06:51;2.70;99.90
35523;DHT22;61478;50.820;4.330;2023-03-01T05:09:19;2.80;99.90
35523;DHT22;61478;50.820;4.330;2023-03-01T05:11:45;2.80;99.90
35523;DHT22;61478;50.820;4.330;2023-03-01T05:14:11;2.80;99.90
35523;DHT22;61478;50.820;4.330;2023-03-01T05:16:37;2.90;99.90
35523;DHT22;61478;50.820;4.330;2023-03-01T05:19:03;2.80;99.90
35523;DHT22;61478;50.820;4.330;2023-03-01T05:21:44;2.80;99.90
35523;DHT22;61478;50.820;4.330;2023-03-01T05:24:31;2.80;99.90
35523;DHT22;61478;50.820;4.330;2023-03-01T05:26:57;2.60;99.90
35523;DHT22;61478;50.820;4.330;2023-03-01T05:29:25;2.60;99.90
35523;DHT22;61478;50.820;4.330;2023-03-01T05:31:56;2.60;99.90
35523;DHT22;61478;50.820;4.330;2023-03-01T05:34:34;2.60;99.90
35523;DHT22;61478;50.820;4.330;2023-03-01T05:37:01;2.60;99.90
35523;DHT22;61478;50.820;4.330;2023-03-01T05:39:29;2.60;99.90
35523;DHT22;61478;50.820;4.330;2023-03-01T05:41:57;2.60;99.90
35523;DHT22;61478;50.820;4.330;2023-03-01T05:44:24;2.60;99.90
35523;DHT22;61478;50.820;4.330;2023-03-01T05:46:50;2.60;99.90
35523;DHT22;61478;50.820;4.330;2023-03-01T05:49:17;2.60;99.90
35523;DHT22;61478;50.820;4.330;2023-03-01T05:51:47;2.70;99.90
35523;DHT22;61478;50.820;4.330;2023-03-01T05:54:14;2.30;99.90
35523;DHT22;61478;50.820;4.330;2023-03-01T05:56:40;2.30;99.90
35523;DHT22;61478;50.820;4.330;2023-03-01T05:59:06;2.20;99.90
35523;DHT22;61478;50.820;4.330;2023-03-01T06:01:33;1.60;99.90
35523;DHT22;61478;50.820;4.330;2023-03-01T06:03:59;1.50;99.90
35523;DHT22;61478;50.820;4.330;2023-03-01T06:06:25;1.50;99.90
35523;DHT22;61478;50.820;4.330;2023-03-01T06:08:52;1.60;99.90
35523;DHT22;61478;50.820;4.330;2023-03-01T06:11:19;1.90;99.90
35523;DHT22;61478;50.820;4.330;2023-03-01T06:13:46;2.10;99.90
35523;DHT22;61478;50.820;4.330;2023-03-01T06:16:13;2.20;99.90
35523;DHT22;61478;50.820;4.330;2023-03-01T06:18:40;2.20;99.90
35523;DHT22;61478;50.820;4.330;2023-03-01T06:21:07;2.30;99.90
35523;DHT22;61478;50.820;4.330;2023-03-01T06:23:34;2.30;99.90
35523;DHT22;61478;50.820;4.330;2023-03-01T06:26:00;2.20;99.90
35523;DHT22;61478;50.820;4.330;2023-03-01T06:28:26;1.60;99.90
35523;DHT22;61478;50.820;4.330;2023-03-01T06:30:52;1.60;99.90
35523;DHT22;61478;50.820;4.330;2023-03-01T06:33:19;1.80;99.90
35523;DHT22;61478;50.820;4.330;2023-03-01T06:35:50;2.00;99.90
35523;DHT22;61478;50.820;4.330;2023-03-01T06:38:16;2.10;99.90
35523;DHT22;61478;50.820;4.330;2023-03-01T06:40:45;2.10;99.90
35523;DHT22;61478;50.820;4.330;2023-03-01T06:43:11;2.20;99.90
35523;DHT22;61478;50.820;4.330;2023-03-01T06:45:37;2.10;99.90
35523;DHT22;61478;50.820;4.330;2023-03-01T06:48:06;2.10;99.90
35523;DHT22;61478;50.820;4.330;2023-03-01T06:50:33;2.30;99.90
35523;DHT22;61478;50.820;4.330;2023-03-01T06:52:59;2.10;99.90
35523;DHT22;61478;50.820;4.330;2023-03-01T06:55:25;1.70;99.90
35523;DHT22;61478;50.820;4.330;2023-03-01T06:57:59;1.60;99.90
35523;DHT22;61478;50.820;4.330;2023-03-01T07:00:26;1.40;99.90
35523;DHT22;61478;50.820;4.330;2023-03-01T07:02:52;1.30;99.90
35523;DHT22;61478;50.820;4.330;2023-03-01T07:05:18;1.00;99.90
35523;DHT22;61478;50.820;4.330;2023-03-01T07:07:44;0.90;99.90
35523;DHT22;61478;50.820;4.330;2023-03-01T07:10:11;1.10;99.90
35523;DHT22;61478;50.820;4.330;2023-03-01T07:12:37;1.30;99.90
35523;DHT22;61478;50.820;4.330;2023-03-01T07:15:04;1.50;99.90
35523;DHT22;61478;50.820;4.330;2023-03-01T07:17:30;1.60;99.90
35523;DHT22;61478;50.820;4.330;2023-03-01T07:19:56;1.50;99.90
35523;DHT22;61478;50.820;4.330;2023-03-01T07:22:22;1.40;99.90
35523;DHT22;61478;50.820;4.330;2023-03-01T07:24:48;1.20;99.90
35523;DHT22;61478;50.820;4.330;2023-03-01T07:27:14;1.20;99.90
35523;DHT22;61478;50.820;4.330;2023-03-01T07:29:40;1.40;99.90
35523;DHT22;61478;50.820;4.330;2023-03-01T07:32:06;1.80;99.90
35523;DHT22;61478;50.820;4.330;2023-03-01T07:34:32;2.00;99.90
35523;DHT22;61478;50.820;4.330;2023-03-01T07:36:58;2.20;99.90
35523;DHT22;61478;50.820;4.330;2023-03-01T07:39:24;2.30;99.90
35523;DHT22;61478;50.820;4.330;2023-03-01T07:41:50;2.50;99.90
35523;DHT22;61478;50.820;4.330;2023-03-01T07:44:16;2.60;99.90
35523;DHT22;61478;50.820;4.330;2023-03-01T07:46:43;2.70;99.90
35523;DHT22;61478;50.820;4.330;2023-03-01T07:49:23;2.80;99.90
35523;DHT22;61478;50.820;4.330;2023-03-01T07:51:49;2.90;99.90
35523;DHT22;61478;50.820;4.330;2023-03-01T07:54:15;2.90;99.90
35523;DHT22;61478;50.820;4.330;2023-03-01T07:56:41;3.00;99.90
35523;DHT22;61478;50.820;4.330;2023-03-01T07:59:07;2.80;99.90
35523;DHT22;61478;50.820;4.330;2023-03-01T08:01:33;2.80;99.90
35523;DHT22;61478;50.820;4.330;2023-03-01T08:04:00;2.90;99.90
35523;DHT22;61478;50.820;4.330;2023-03-01T08:06:27;2.70;99.90
35523;DHT22;61478;50.820;4.330;2023-03-01T08:08:56;2.80;99.90
35523;DHT22;61478;50.820;4.330;2023-03-01T08:11:26;2.90;99.90
35523;DHT22;61478;50.820;4.330;2023-03-01T08:13:54;2.90;99.90
35523;DHT22;61478;50.820;4.330;2023-03-01T08:16:20;3.00;99.90
35523;DHT22;61478;50.820;4.330;2023-03-01T08:18:46;3.00;99.90
35523;DHT22;61478;50.820;4.330;2023-03-01T08:21:14;3.10;99.90
35523;DHT22;61478;50.820;4.330;2023-03-01T08:23:41;3.00;99.90
35523;DHT22;61478;50.820;4.330;2023-03-01T08:26:12;3.00;99.90
35523;DHT22;61478;50.820;4.330;2023-03-01T08:28:39;2.90;99.90
35523;DHT22;61478;50.820;4.330;2023-03-01T08:31:27;2.90;99.90
35523;DHT22;61478;50.820;4.330;2023-03-01T08:33:56;2.90;99.90
35523;DHT22;61478;50.820;4.330;2023-03-01T08:36:24;2.90;99.90
35523;DHT22;61478;50.820;4.330;2023-03-01T08:38:51;2.90;99.90
35523;DHT22;61478;50.820;4.330;2023-03-01T08:41:17;3.00;99.90
35523;DHT22;61478;50.820;4.330;2023-03-01T08:43:44;3.00;99.90
35523;DHT22;61478;50.820;4.330;2023-03-01T08:46:10;3.10;99.90
35523;DHT22;61478;50.820;4.330;2023-03-01T08:48:36;3.10;99.90
35523;DHT22;61478;50.820;4.330;2023-03-01T08:51:14;3.20;99.90
35523;DHT22;61478;50.820;4.330;2023-03-01T08:53:50;3.10;99.90
35523;DHT22;61478;50.820;4.330;2023-03-01T08:56:19;3.00;99.90
35523;DHT22;61478;50.820;4.330;2023-03-01T08:58:47;3.00;99.90
35523;DHT22;61478;50.820;4.330;2023-03-01T09:01:15;3.10;99.90
35523;DHT22;61478;50.820;4.330;2023-03-01T09:03:42;3.00;99.90
35523;DHT22;61478;50.820;4.330;2023-03-01T09:06:09;3.00;99.90
35523;DHT22;61478;50.820;4.330;2023-03-01T09:08:40;3.20;99.90
35523;DHT22;61478;50.820;4.330;2023-03-01T09:11:07;3.30;99.90
35523;DHT22;61478;50.820;4.330;2023-03-01T09:13:37;3.30;99.90
35523;DHT22;61478;50.820;4.330;2023-03-01T09:16:08;3.50;99.90
35523;DHT22;61478;50.820;4.330;2023-03-01T09:18:38;3.60;99.90
35523;DHT22;61478;50.820;4.330;2023-03-01T09:21:11;3.70;99.90
35523;DHT22;61478;50.820;4.330;2023-03-01T09:23:42;3.90;99.90
35523;DHT22;61478;50.820;4.330;2023-03-01T09:26:10;3.90;99.90
35523;DHT22;61478;50.820;4.330;2023-03-01T09:28:49;4.00;99.90
35523;DHT22;61478;50.820;4.330;2023-03-01T09:31:17;4.00;99.90
35523;DHT22;61478;50.820;4.330;2023-03-01T09:33:47;4.10;99.90
35523;DHT22;61478;50.820;4.330;2023-03-01T09:36:18;4.20;99.90
35523;DHT22;61478;50.820;4.330;2023-03-01T09:38:45;4.20;99.90
35523;DHT22;61478;50.820;4.330;2023-03-01T09:44:03;4.20;99.90
35523;DHT22;61478;50.820;4.330;2023-03-01T09:46:35;4.10;99.90
35523;DHT22;61478;50.820;4.330;2023-03-01T09:49:05;4.10;99.90
35523;DHT22;61478;50.820;4.330;2023-03-01T09:51:36;4.00;99.90
35523;DHT22;61478;50.820;4.330;2023-03-01T09:54:05;4.30;99.90
35523;DHT22;61478;50.820;4.330;2023-03-01T09:56:41;4.40;99.90
35523;DHT22;61478;50.820;4.330;2023-03-01T10:07:10;5.70;99.90
35523;DHT22;61478;50.820;4.330;2023-03-01T10:09:41;6.20;99.90
35523;DHT22;61478;50.820;4.330;2023-03-01T10:12:19;6.20;99.90
35523;DHT22;61478;50.820;4.330;2023-03-01T10:15:04;6.10;99.90
35523;DHT22;61478;50.820;4.330;2023-03-01T10:20:30;5.90;99.90
35523;DHT22;61478;50.820;4.330;2023-03-01T10:22:59;5.70;99.90
35523;DHT22;61478;50.820;4.330;2023-03-01T10:31:05;5.90;99.90
35523;DHT22;61478;50.820;4.330;2023-03-01T10:33:38;5.90;99.90
35523;DHT22;61478;50.820;4.330;2023-03-01T10:36:07;5.90;99.90
35523;DHT22;61478;50.820;4.330;2023-03-01T10:38:57;5.80;99.90
35523;DHT22;61478;50.820;4.330;2023-03-01T10:41:27;5.90;99.90
35523;DHT22;61478;50.820;4.330;2023-03-01T10:43:56;6.20;99.90
35523;DHT22;61478;50.820;4.330;2023-03-01T10:46:26;6.30;99.90
35523;DHT22;61478;50.820;4.330;2023-03-01T10:51:45;6.30;99.90
35523;DHT22;61478;50.820;4.330;2023-03-01T10:54:38;6.30;99.90
35523;DHT22;61478;50.820;4.330;2023-03-01T10:57:10;6.50;99.90
35523;DHT22;61478;50.820;4.330;2023-03-01T11:00:01;6.80;99.90
35523;DHT22;61478;50.820;4.330;2023-03-01T11:02:30;6.80;99.90
35523;DHT22;61478;50.820;4.330;2023-03-01T11:05:16;7.10;99.90
35523;DHT22;61478;50.820;4.330;2023-03-01T11:07:57;7.60;99.90
35523;DHT22;61478;50.820;4.330;2023-03-01T11:10:32;8.50;99.90
35523;DHT22;61478;50.820;4.330;2023-03-01T11:13:19;9.50;98.70
35523;DHT22;61478;50.820;4.330;2023-03-01T11:16:06;10.20;95.30
35523;DHT22;61478;50.820;4.330;2023-03-01T11:18:33;10.90;93.10
35523;DHT22;61478;50.820;4.330;2023-03-01T11:21:00;11.30;91.30
35523;DHT22;61478;50.820;4.330;2023-03-01T11:23:29;11.80;90.10
35523;DHT22;61478;50.820;4.330;2023-03-01T11:26:04;12.10;87.40
35523;DHT22;61478;50.820;4.330;2023-03-01T11:28:31;12.40;84.60
35523;DHT22;61478;50.820;4.330;2023-03-01T11:31:05;12.70;82.40
35523;DHT22;61478;50.820;4.330;2023-03-01T11:38:48;12.80;79.80
35523;DHT22;61478;50.820;4.330;2023-03-01T11:41:21;13.20;78.80
35523;DHT22;61478;50.820;4.330;2023-03-01T11:44:03;13.50;77.70
35523;DHT22;61478;50.820;4.330;2023-03-01T11:52:05;13.30;75.10
35523;DHT22;61478;50.820;4.330;2023-03-01T11:54:55;13.10;74.20
35523;DHT22;61478;50.820;4.330;2023-03-01T12:03:10;13.10;73.60
35523;DHT22;61478;50.820;4.330;2023-03-01T12:05:53;12.90;74.30
35523;DHT22;61478;50.820;4.330;2023-03-01T12:08:47;13.40;73.80
35523;DHT22;61478;50.820;4.330;2023-03-01T12:31:26;12.00;72.70
35523;DHT22;61478;50.820;4.330;2023-03-01T12:48:10;12.20;72.20
35523;DHT22;61478;50.820;4.330;2023-03-01T12:50:47;11.90;71.90
35523;DHT22;61478;50.820;4.330;2023-03-01T12:55:51;11.30;73.60
35523;DHT22;61478;50.820;4.330;2023-03-01T12:58:35;11.20;74.70
35523;DHT22;61478;50.820;4.330;2023-03-01T13:01:15;11.20;75.10
35523;DHT22;61478;50.820;4.330;2023-03-01T13:06:55;11.20;75.50
35523;DHT22;61478;50.820;4.330;2023-03-01T13:17:58;11.30;75.70
35523;DHT22;61478;50.820;4.330;2023-03-01T13:20:30;11.30;75.70
35523;DHT22;61478;50.820;4.330;2023-03-01T13:23:13;11.30;75.90
35523;DHT22;61478;50.820;4.330;2023-03-01T13:26:00;11.20;76.20
35523;DHT22;61478;50.820;4.330;2023-03-01T13:28:47;11.30;76.40
35523;DHT22;61478;50.820;4.330;2023-03-01T13:33:52;11.20;75.50
35523;DHT22;61478;50.820;4.330;2023-03-01T13:44:25;11.10;74.30
35523;DHT22;61478;50.820;4.330;2023-03-01T13:46:53;10.80;74.70
35523;DHT22;61478;50.820;4.330;2023-03-01T13:49:25;10.60;75.40
35523;DHT22;61478;50.820;4.330;2023-03-01T13:51:52;10.60;74.90
35523;DHT22;61478;50.820;4.330;2023-03-01T13:54:40;10.50;74.80
35523;DHT22;61478;50.820;4.330;2023-03-01T13:57:06;10.60;75.80
35523;DHT22;61478;50.820;4.330;2023-03-01T13:59:47;10.30;76.40
35523;DHT22;61478;50.820;4.330;2023-03-01T14:02:15;10.20;75.90
35523;DHT22;61478;50.820;4.330;2023-03-01T14:04:42;10.10;77.00
35523;DHT22;61478;50.820;4.330;2023-03-01T14:07:12;10.20;76.60
35523;DHT22;61478;50.820;4.330;2023-03-01T14:09:44;10.20;76.50
35523;DHT22;61478;50.820;4.330;2023-03-01T14:20:19;9.60;80.70
35523;DHT22;61478;50.820;4.330;2023-03-01T14:22:46;9.80;79.80
35523;DHT22;61478;50.820;4.330;2023-03-01T14:25:32;9.90;77.90
35523;DHT22;61478;50.820;4.330;2023-03-01T14:28:04;9.90;77.80
35523;DHT22;61478;50.820;4.330;2023-03-01T14:30:43;9.90;77.40
35523;DHT22;61478;50.820;4.330;2023-03-01T14:33:30;9.80;77.20
35523;DHT22;61478;50.820;4.330;2023-03-01T14:38:34;9.70;78.50
35523;DHT22;61478;50.820;4.330;2023-03-01T14:41:16;9.50;78.60
35523;DHT22;61478;50.820;4.330;2023-03-01T14:43:45;9.60;79.30
35523;DHT22;61478;50.820;4.330;2023-03-01T14:46:36;9.60;79.60
35523;DHT22;61478;50.820;4.330;2023-03-01T14:49:17;9.60;78.90
35523;DHT22;61478;50.820;4.330;2023-03-01T14:52:02;9.60;81.00
35523;DHT22;61478;50.820;4.330;2023-03-01T14:54:42;9.50;80.60
35523;DHT22;61478;50.820;4.330;2023-03-01T14:57:17;9.70;80.60
35523;DHT22;61478;50.820;4.330;2023-03-01T14:59:44;9.70;80.60
35523;DHT22;61478;50.820;4.330;2023-03-01T15:02:19;9.60;81.30
35523;DHT22;61478;50.820;4.330;2023-03-01T15:04:49;9.50;80.20
35523;DHT22;61478;50.820;4.330;2023-03-01T15:07:18;9.50;80.70
35523;DHT22;61478;50.820;4.330;2023-03-01T15:09:47;9.40;81.30
35523;DHT22;61478;50.820;4.330;2023-03-01T15:14:56;9.40;81.50
35523;DHT22;61478;50.820;4.330;2023-03-01T15:17:42;9.20;81.30
35523;DHT22;61478;50.820;4.330;2023-03-01T15:20:19;9.30;82.10
35523;DHT22;61478;50.820;4.330;2023-03-01T15:22:57;9.20;81.90
35523;DHT22;61478;50.820;4.330;2023-03-01T15:25:28;9.20;82.60
35523;DHT22;61478;50.820;4.330;2023-03-01T15:27:56;9.40;82.20
35523;DHT22;61478;50.820;4.330;2023-03-01T15:30:31;9.40;82.30
35523;DHT22;61478;50.820;4.330;2023-03-01T15:33:28;9.30;82.00
35523;DHT22;61478;50.820;4.330;2023-03-01T15:36:03;9.20;81.80
35523;DHT22;61478;50.820;4.330;2023-03-01T15:38:36;9.10;82.40
35523;DHT22;61478;50.820;4.330;2023-03-01T15:41:47;9.10;83.30
35523;DHT22;61478;50.820;4.330;2023-03-01T15:44:14;9.10;83.50
35523;DHT22;61478;50.820;4.330;2023-03-01T15:46:46;9.00;83.10
35523;DHT22;61478;50.820;4.330;2023-03-01T15:49:33;9.10;83.60
35523;DHT22;61478;50.820;4.330;2023-03-01T15:52:01;9.20;84.10
35523;DHT22;61478;50.820;4.330;2023-03-01T15:54:31;9.20;84.60
35523;DHT22;61478;50.820;4.330;2023-03-01T15:57:08;9.30;84.40
35523;DHT22;61478;50.820;4.330;2023-03-01T15:59:40;9.30;84.70
35523;DHT22;61478;50.820;4.330;2023-03-01T16:02:11;9.20;84.10
35523;DHT22;61478;50.820;4.330;2023-03-01T16:04:42;9.20;84.80
35523;DHT22;61478;50.820;4.330;2023-03-01T16:07:11;9.20;91.10
35523;DHT22;61478;50.820;4.330;2023-03-01T16:09:36;9.20;84.10
35523;DHT22;61478;50.820;4.330;2023-03-01T16:12:08;9.00;84.00
35523;DHT22;61478;50.820;4.330;2023-03-01T16:14:37;9.00;83.70
35523;DHT22;61478;50.820;4.330;2023-03-01T16:17:03;8.80;83.80
35523;DHT22;61478;50.820;4.330;2023-03-01T16:19:29;8.70;83.80
35523;DHT22;61478;50.820;4.330;2023-03-01T16:21:55;8.60;84.60
35523;DHT22;61478;50.820;4.330;2023-03-01T16:24:21;8.70;86.10
35523;DHT22;61478;50.820;4.330;2023-03-01T16:26:47;8.80;85.80
35523;DHT22;61478;50.820;4.330;2023-03-01T16:29:17;8.90;86.10
35523;DHT22;61478;50.820;4.330;2023-03-01T16:31:52;8.90;86.00
35523;DHT22;61478;50.820;4.330;2023-03-01T16:34:28;8.80;86.70
35523;DHT22;61478;50.820;4.330;2023-03-01T16:36:57;8.80;87.30
35523;DHT22;61478;50.820;4.330;2023-03-01T16:39:27;8.80;87.20
35523;DHT22;61478;50.820;4.330;2023-03-01T16:42:00;8.90;88.50
35523;DHT22;61478;50.820;4.330;2023-03-01T16:44:27;8.90;87.70
35523;DHT22;61478;50.820;4.330;2023-03-01T16:47:00;8.90;87.60
35523;DHT22;61478;50.820;4.330;2023-03-01T16:49:29;9.00;87.20
35523;DHT22;61478;50.820;4.330;2023-03-01T16:52:04;9.00;87.20
35523;DHT22;61478;50.820;4.330;2023-03-01T16:54:33;8.90;87.80
35523;DHT22;61478;50.820;4.330;2023-03-01T16:57:05;8.90;88.30
35523;DHT22;61478;50.820;4.330;2023-03-01T16:59:31;9.00;89.50
35523;DHT22;61478;50.820;4.330;2023-03-01T17:02:01;8.90;87.60
35523;DHT22;61478;50.820;4.330;2023-03-01T17:04:34;8.90;87.70
35523;DHT22;61478;50.820;4.330;2023-03-01T17:07:11;8.90;87.80
35523;DHT22;61478;50.820;4.330;2023-03-01T17:09:38;8.80;88.50
35523;DHT22;61478;50.820;4.330;2023-03-01T17:12:05;8.70;89.30
35523;DHT22;61478;50.820;4.330;2023-03-01T17:14:31;8.60;89.10
35523;DHT22;61478;50.820;4.330;2023-03-01T17:17:00;8.60;90.10
35523;DHT22;61478;50.820;4.330;2023-03-01T17:19:33;8.50;90.30
35523;DHT22;61478;50.820;4.330;2023-03-01T17:22:13;8.60;90.50
35523;DHT22;61478;50.820;4.330;2023-03-01T17:24:43;8.60;90.60
35523;DHT22;61478;50.820;4.330;2023-03-01T17:27:12;8.60;91.20
35523;DHT22;61478;50.820;4.330;2023-03-01T17:29:42;8.60;90.90
35523;DHT22;61478;50.820;4.330;2023-03-01T17:32:11;8.60;92.20
35523;DHT22;61478;50.820;4.330;2023-03-01T17:34:43;8.60;92.90
35523;DHT22;61478;50.820;4.330;2023-03-01T17:37:11;8.70;91.60
35523;DHT22;61478;50.820;4.330;2023-03-01T17:39:40;8.60;91.60
35523;DHT22;61478;50.820;4.330;2023-03-01T17:42:09;8.70;91.70
35523;DHT22;61478;50.820;4.330;2023-03-01T17:44:36;8.80;92.40
35523;DHT22;61478;50.820;4.330;2023-03-01T17:47:04;8.80;91.60
35523;DHT22;61478;50.820;4.330;2023-03-01T17:49:33;8.60;92.10
35523;DHT22;61478;50.820;4.330;2023-03-01T17:52:02;8.50;91.50
35523;DHT22;61478;50.820;4.330;2023-03-01T17:54:36;8.50;92.40
35523;DHT22;61478;50.820;4.330;2023-03-01T17:57:06;8.30;91.80
35523;DHT22;61478;50.820;4.330;2023-03-01T17:59:36;8.20;91.80
35523;DHT22;61478;50.820;4.330;2023-03-01T18:02:09;8.10;92.30
35523;DHT22;61478;50.820;4.330;2023-03-01T18:04:37;8.00;92.40
35523;DHT22;61478;50.820;4.330;2023-03-01T18:07:12;7.90;92.20
35523;DHT22;61478;50.820;4.330;2023-03-01T18:09:39;7.80;92.60
35523;DHT22;61478;50.820;4.330;2023-03-01T18:12:06;7.70;92.80
35523;DHT22;61478;50.820;4.330;2023-03-01T18:14:32;7.70;93.00
35523;DHT22;61478;50.820;4.330;2023-03-01T18:17:07;7.80;92.60
35523;DHT22;61478;50.820;4.330;2023-03-01T18:19:38;7.90;92.10